Alire, New Mexico
Current Conditions -  °F | °C
As of 10:15 PM on Friday 24 Oct 2014 (Local Time) from KLAM Reporting Station
Clear Clear  
Wind Chill: 62°   Ceiling: Unl
Heat Index: 62°   Visibility: 10mi
Dew Point: 22°   Wind: 5mph
Humidity: 22%   Direction: 250°WSW
Pressure: 30.38"   Gusts: NA
Location:  36.4765°N, 106.58°W
Report Text: KLAM 250415Z AUTO 25004KT 10SM CLR 17/M06 A3038 RMK AO2 T01651057
Loading
Personal Weather Stations






























Interactive Weather Map
Tropical Storm Tracking
New forecast layout! Learn more

10-Day Weather Forecast

Advertisements
Track Severe Weather on mobile